Time;durP1;ratioP1;P1;durP2;ratioP2;P2;SDS_P1;SDS_P2;PMS_P1;PMS_P2;Temp;Humidity;BMP_temperature;BMP_pressure;BME280_temperature;BME280_humidity;BME280_pressure;Samples;Min_cycle;Max_cycle;Signal;HPM_P1;HPM_P2
2023/10/03 00:00:34;;;;;;;66.57;32.42;;;;;;;;;;6255734;22;20408;-90
2023/10/03 00:03:04;;;;;;;55.30;29.42;;;;;;;;;;6281926;22;20017;-91
2023/10/03 00:05:31;;;;;;;58.83;29.83;;;;;;;;;;6255767;22;20022;-91
2023/10/03 00:07:58;;;;;;;52.08;30.00;;;;;;;;;;6256725;22;20023;-91
2023/10/03 00:10:25;;;;;;;58.15;28.98;;;;;;;;;;6256095;22;20145;-91
2023/10/03 00:12:52;;;;;;;52.47;28.13;;;;;;;;;;6256013;22;20090;-90
2023/10/03 00:15:18;;;;;;;57.55;28.55;;;;;;;;;;6281563;22;20022;-90
2023/10/03 00:17:45;;;;;;;50.30;27.20;;;;;;;;;;6255743;22;20019;-91
2023/10/03 00:20:18;;;;;;;55.78;29.50;;;;;;;;;;6255862;22;20076;-92
2023/10/03 00:22:46;;;;;;;;;;;;;;;;;;6282866;22;20026;-91
2023/10/03 00:25:23;;;;;;;52.78;28.42;;;;;;;;;;6256709;22;19915;-90
2023/10/03 00:27:50;;;;;;;59.35;29.20;;;;;;;;;;6256165;22;20030;-91
2023/10/03 00:30:19;;;;;;;57.00;29.75;;;;;;;;;;6255950;22;20011;-90
2023/10/03 00:32:45;;;;;;;54.42;28.10;;;;;;;;;;6256603;22;20030;-91
2023/10/03 00:35:12;;;;;;;49.55;27.02;;;;;;;;;;6256481;22;20372;-90
2023/10/03 00:37:39;;;;;;;53.67;28.23;;;;;;;;;;6255387;22;20022;-91
2023/10/03 00:42:50;;;;;;;54.60;27.58;;;;;;;;;;6281848;22;20020;-91
2023/10/03 00:45:24;;;;;;;54.83;27.92;;;;;;;;;;6255615;22;20053;-90
2023/10/03 00:47:54;;;;;;;59.22;28.85;;;;;;;;;;6256923;22;20031;-90
2023/10/03 00:50:23;;;;;;;59.15;28.45;;;;;;;;;;6282322;22;20094;-91
2023/10/03 00:52:57;;;;;;;52.58;28.10;;;;;;;;;;6256562;22;20019;-91
2023/10/03 00:55:28;;;;;;;56.25;27.25;;;;;;;;;;6256068;22;20015;-89
2023/10/03 00:58:06;;;;;;;54.58;28.52;;;;;;;;;;6255495;22;20047;-90
2023/10/03 01:00:43;;;;;;;50.90;27.58;;;;;;;;;;6255854;22;20375;-90
2023/10/03 01:03:28;;;;;;;48.97;26.30;;;;;;;;;;6256058;22;20015;-90
2023/10/03 01:05:54;;;;;;;47.45;26.20;;;;;;;;;;6255569;22;20015;-90
2023/10/03 01:08:24;;;;;;;47.05;25.73;;;;;;;;;;6281545;22;20448;-89
2023/10/03 01:10:55;;;;;;;47.22;25.58;;;;;;;;;;6255368;22;20046;-90
2023/10/03 01:13:23;;;;;;;49.47;27.10;;;;;;;;;;6255503;22;20020;-90
2023/10/03 01:15:50;;;;;;;48.40;25.20;;;;;;;;;;6255285;22;20047;-89
2023/10/03 01:18:26;;;;;;;48.90;25.52;;;;;;;;;;6255882;22;20094;-90
2023/10/03 01:20:55;;;;;;;;;;;;;;;;;;6256151;22;20092;-90
2023/10/03 01:23:29;;;;;;;45.10;24.35;;;;;;;;;;6255704;22;19941;-90
2023/10/03 01:25:56;;;;;;;47.00;25.30;;;;;;;;;;6255613;22;20382;-90
2023/10/03 01:28:22;;;;;;;54.42;24.67;;;;;;;;;;6255744;22;20051;-90
2023/10/03 01:30:51;;;;;;;45.08;24.73;;;;;;;;;;6256224;22;20046;-90
2023/10/03 01:33:17;;;;;;;39.97;23.48;;;;;;;;;;6255491;22;20443;-90
2023/10/03 01:35:46;;;;;;;41.58;21.95;;;;;;;;;;6255187;22;20018;-90
2023/10/03 01:38:14;;;;;;;41.22;23.85;;;;;;;;;;6254999;22;20023;-91
2023/10/03 01:40:40;;;;;;;42.83;22.63;;;;;;;;;;6256057;22;20102;-89
2023/10/03 01:43:07;;;;;;;41.47;21.95;;;;;;;;;;6255074;22;20012;-90
2023/10/03 01:45:33;;;;;;;40.67;22.60;;;;;;;;;;6254378;22;20335;-90
2023/10/03 01:48:00;;;;;;;44.70;24.15;;;;;;;;;;6255316;22;20015;-89
2023/10/03 01:50:31;;;;;;;41.30;22.73;;;;;;;;;;6254933;22;20102;-90
2023/10/03 01:52:57;;;;;;;40.33;22.05;;;;;;;;;;6255922;22;20408;-90
2023/10/03 01:55:23;;;;;;;42.15;21.98;;;;;;;;;;6255008;22;20386;-91
2023/10/03 01:57:50;;;;;;;40.50;21.98;;;;;;;;;;6255300;22;20099;-90
2023/10/03 02:00:26;;;;;;;37.80;21.15;;;;;;;;;;6255006;22;20019;-89
2023/10/03 02:03:14;;;;;;;37.80;21.45;;;;;;;;;;6280643;22;20041;-89
2023/10/03 02:05:42;;;;;;;41.97;22.02;;;;;;;;;;6279308;22;20053;-89
2023/10/03 02:08:19;;;;;;;38.60;22.05;;;;;;;;;;6254876;22;20019;-90
2023/10/03 02:10:51;;;;;;;37.47;20.95;;;;;;;;;;6255262;22;20094;-90
2023/10/03 02:13:18;;;;;;;42.05;21.80;;;;;;;;;;6254669;22;20344;-90
2023/10/03 02:15:50;;;;;;;39.05;21.05;;;;;;;;;;6254477;22;20455;-90
2023/10/03 02:18:18;;;;;;;37.55;20.08;;;;;;;;;;6280596;22;20019;-90
2023/10/03 02:20:47;;;;;;;40.95;21.52;;;;;;;;;;6279594;22;20018;-89
2023/10/03 02:23:19;;;;;;;40.33;21.10;;;;;;;;;;6254969;22;20109;-89
2023/10/03 02:25:48;;;;;;;37.33;20.25;;;;;;;;;;6256389;22;20016;-89
2023/10/03 02:28:17;;;;;;;36.80;19.73;;;;;;;;;;6255366;22;20342;-90
2023/10/03 02:30:48;;;;;;;36.05;19.52;;;;;;;;;;6255070;22;20094;-91
2023/10/03 02:33:16;;;;;;;38.90;20.33;;;;;;;;;;6254719;22;20073;-89
2023/10/03 02:35:42;;;;;;;37.92;21.15;;;;;;;;;;6254511;22;20019;-89
2023/10/03 02:38:10;;;;;;;40.30;20.33;;;;;;;;;;6255497;22;20420;-89
2023/10/03 02:40:36;;;;;;;35.97;18.58;;;;;;;;;;6281095;22;20297;-89
2023/10/03 02:43:04;;;;;;;35.55;19.13;;;;;;;;;;6254567;22;20042;-90
2023/10/03 02:45:30;;;;;;;38.53;18.65;;;;;;;;;;6254291;22;20094;-91
2023/10/03 02:47:58;;;;;;;34.78;18.25;;;;;;;;;;6254562;22;20404;-89
2023/10/03 02:50:26;;;;;;;34.72;17.52;;;;;;;;;;6254659;22;20064;-90
2023/10/03 02:52:52;;;;;;;36.58;18.27;;;;;;;;;;6254682;22;20321;-91
2023/10/03 02:55:19;;;;;;;34.50;18.10;;;;;;;;;;6255279;22;20012;-90
2023/10/03 02:57:45;;;;;;;36.25;17.75;;;;;;;;;;6254808;22;20015;-90
2023/10/03 03:00:12;;;;;;;37.88;18.92;;;;;;;;;;6254183;22;20050;-89
2023/10/03 03:02:42;;;;;;;36.67;17.75;;;;;;;;;;6255183;22;20058;-89
2023/10/03 03:05:10;;;;;;;33.88;18.02;;;;;;;;;;6254546;22;20011;-89
2023/10/03 03:07:36;;;;;;;33.17;17.17;;;;;;;;;;6254989;22;20019;-90
2023/10/03 03:10:02;;;;;;;34.20;17.25;;;;;;;;;;6254423;22;20474;-91
2023/10/03 03:12:28;;;;;;;33.08;16.02;;;;;;;;;;6254401;22;20023;-90
2023/10/03 03:14:58;;;;;;;30.15;16.00;;;;;;;;;;6254738;22;20379;-91
2023/10/03 03:17:25;;;;;;;33.67;16.42;;;;;;;;;;6254982;22;20351;-90
2023/10/03 03:20:04;;;;;;;31.77;16.17;;;;;;;;;;6254861;22;20027;-91
2023/10/03 03:22:33;;;;;;;28.95;15.80;;;;;;;;;;6280282;22;20019;-90
2023/10/03 03:25:00;;;;;;;32.78;15.88;;;;;;;;;;6255225;22;20512;-88
2023/10/03 03:27:26;;;;;;;31.35;15.55;;;;;;;;;;6256320;22;20018;-90
2023/10/03 03:32:38;;;;;;;29.70;15.73;;;;;;;;;;6282898;22;20019;-90
2023/10/03 03:35:06;;;;;;;29.42;15.23;;;;;;;;;;6256273;22;20015;-90
2023/10/03 03:37:37;;;;;;;31.80;16.13;;;;;;;;;;6256171;22;20435;-91
2023/10/03 03:40:12;;;;;;;31.27;15.35;;;;;;;;;;6257170;22;20293;-89
2023/10/03 03:42:46;;;;;;;29.35;16.08;;;;;;;;;;6256626;22;20080;-90
2023/10/03 03:45:17;;;;;;;31.38;15.57;;;;;;;;;;6256449;22;20408;-91
2023/10/03 03:47:50;;;;;;;31.38;15.23;;;;;;;;;;6257246;22;20098;-90
2023/10/03 03:50:20;;;;;;;31.63;15.38;;;;;;;;;;6256190;22;20439;-90
2023/10/03 03:52:48;;;;;;;30.00;14.80;;;;;;;;;;6257053;22;20011;-89
2023/10/03 03:55:16;;;;;;;35.67;15.50;;;;;;;;;;6257172;22;20070;-90
2023/10/03 03:57:43;;;;;;;32.15;14.50;;;;;;;;;;6256122;22;20011;-89
2023/10/03 04:00:14;;;;;;;32.92;15.32;;;;;;;;;;6256885;22;20198;-90
2023/10/03 04:02:41;;;;;;;27.38;14.40;;;;;;;;;;6257054;22;20015;-90
2023/10/03 04:05:08;;;;;;;28.27;14.35;;;;;;;;;;6257029;22;20015;-89
2023/10/03 04:07:42;;;;;;;28.90;14.88;;;;;;;;;;6256418;22;20020;-90
2023/10/03 04:10:13;;;;;;;31.67;15.15;;;;;;;;;;6257836;22;20411;-89
2023/10/03 04:12:42;;;;;;;28.95;14.10;;;;;;;;;;6256109;22;20023;-90
2023/10/03 04:15:12;;;;;;;29.30;14.40;;;;;;;;;;6257567;22;20093;-89
2023/10/03 04:17:39;;;;;;;30.38;14.18;;;;;;;;;;6256985;22;20064;-89
2023/10/03 04:20:13;;;;;;;27.75;14.27;;;;;;;;;;6256291;22;20022;-90
2023/10/03 04:22:41;;;;;;;31.08;16.08;;;;;;;;;;6257109;22;20309;-89
2023/10/03 04:25:13;;;;;;;30.48;15.02;;;;;;;;;;6255890;22;20094;-90
2023/10/03 04:27:42;;;;;;;28.17;14.02;;;;;;;;;;6256815;22;20034;-89
2023/10/03 04:30:13;;;;;;;25.95;12.93;;;;;;;;;;6255811;22;20080;-89
2023/10/03 04:32:41;;;;;;;28.45;13.57;;;;;;;;;;6255618;22;20047;-90
2023/10/03 04:35:11;;;;;;;29.73;14.35;;;;;;;;;;6256440;22;20466;-89
2023/10/03 04:37:39;;;;;;;30.60;13.90;;;;;;;;;;6256017;22;20015;-90
2023/10/03 04:40:06;;;;;;;25.17;12.80;;;;;;;;;;6255722;22;20046;-90
2023/10/03 04:42:35;;;;;;;25.63;12.88;;;;;;;;;;6256025;22;20019;-90
2023/10/03 04:45:05;;;;;;;28.20;13.98;;;;;;;;;;6256026;22;20019;-90
2023/10/03 04:47:32;;;;;;;27.33;13.40;;;;;;;;;;6256943;22;20019;-90
2023/10/03 04:50:02;;;;;;;28.17;13.63;;;;;;;;;;6256335;22;20019;-88
2023/10/03 04:52:28;;;;;;;27.20;13.27;;;;;;;;;;6256033;22;20448;-90
2023/10/03 04:54:54;;;;;;;31.13;14.82;;;;;;;;;;6256135;22;20011;-91
2023/10/03 04:57:20;;;;;;;30.10;13.30;;;;;;;;;;6281168;22;20356;-90
2023/10/03 04:59:50;;;;;;;29.25;12.75;;;;;;;;;;6256341;22;20383;-89
2023/10/03 05:02:16;;;;;;;26.42;13.52;;;;;;;;;;6256314;22;20026;-90
2023/10/03 05:04:42;;;;;;;30.50;14.65;;;;;;;;;;6255031;22;20061;-89
2023/10/03 05:07:10;;;;;;;36.53;15.07;;;;;;;;;;6256017;22;20034;-90
2023/10/03 05:09:36;;;;;;;31.98;14.85;;;;;;;;;;6256953;22;20021;-88
2023/10/03 05:12:05;;;;;;;37.72;15.65;;;;;;;;;;6256386;22;20114;-90
2023/10/03 05:52:30;;;;;;;41.78;20.77;;;;;;;;;;6009450;23;20095;-92
2023/10/03 05:59:01;;;;;;;46.78;22.02;;;;;;;;;;6132354;23;20073;-90
2023/10/03 06:04:59;;;;;;;35.42;18.70;;;;;;;;;;6188534;23;20028;-91
2023/10/03 06:07:42;;;;;;;38.90;19.55;;;;;;;;;;6162158;23;20020;-90
2023/10/03 06:10:22;;;;;;;34.78;17.63;;;;;;;;;;6232192;22;20019;-89
2023/10/03 06:13:24;;;;;;;37.03;19.25;;;;;;;;;;6257565;22;20019;-91
2023/10/03 06:19:45;;;;;;;;;;;;;;;;;;;;;
2023/10/03 06:22:33;;;;;;;39.20;17.35;;;;;;;;;;6306801;22;20040;-91
2023/10/03 06:25:11;;;;;;;38.17;17.25;;;;;;;;;;6254453;22;20074;-89
2023/10/03 06:27:56;;;;;;;35.28;14.60;;;;;;;;;;6254734;22;20491;-89
2023/10/03 06:30:45;;;;;;;41.15;15.15;;;;;;;;;;6254601;22;20114;-88
2023/10/03 06:33:37;;;;;;;40.78;13.15;;;;;;;;;;6287557;22;20050;-91
2023/10/03 06:36:06;;;;;;;32.60;12.70;;;;;;;;;;6257532;22;20023;-87
2023/10/03 06:38:38;;;;;;;32.97;12.73;;;;;;;;;;6256943;22;20023;-88
2023/10/03 06:41:07;;;;;;;29.83;10.43;;;;;;;;;;6256985;22;20106;-88
2023/10/03 06:43:36;;;;;;;40.05;10.32;;;;;;;;;;6257745;22;20011;-88
2023/10/03 06:46:05;;;;;;;30.90;9.57;;;;;;;;;;6255221;22;20030;-88
2023/10/03 06:48:32;;;;;;;29.17;8.80;;;;;;;;;;6256271;22;20319;-88
2023/10/03 06:51:04;;;;;;;25.95;8.15;;;;;;;;;;6257743;22;20017;-87
2023/10/03 06:53:30;;;;;;;22.50;7.00;;;;;;;;;;6282536;22;20443;-87
2023/10/03 06:55:57;;;;;;;18.30;5.70;;;;;;;;;;6255342;22;20012;-87
2023/10/03 06:58:25;;;;;;;16.20;5.40;;;;;;;;;;6256030;22;20343;-88
2023/10/03 07:00:55;;;;;;;14.98;5.38;;;;;;;;;;6256728;22;20015;-87
2023/10/03 07:03:25;;;;;;;17.17;4.90;;;;;;;;;;6254849;22;20015;-87
2023/10/03 07:05:53;;;;;;;17.83;4.43;;;;;;;;;;6255755;22;20098;-86
2023/10/03 07:08:21;;;;;;;12.60;4.00;;;;;;;;;;6256503;22;20019;-87
2023/10/03 07:10:47;;;;;;;14.15;3.63;;;;;;;;;;6254146;22;20062;-88
2023/10/03 07:13:14;;;;;;;11.85;3.97;;;;;;;;;;6255040;22;20087;-86
2023/10/03 07:15:42;;;;;;;14.30;3.75;;;;;;;;;;6254850;22;20474;-87
2023/10/03 07:18:10;;;;;;;14.32;3.30;;;;;;;;;;6254718;22;20051;-87
2023/10/03 07:20:38;;;;;;;8.73;3.10;;;;;;;;;;6253699;22;20455;-87
2023/10/03 07:23:09;;;;;;;9.32;3.50;;;;;;;;;;6255031;22;20447;-87
2023/10/03 07:25:36;;;;;;;13.13;3.55;;;;;;;;;;6256282;22;20015;-89
2023/10/03 07:31:46;;;;;;;;;;;;;;;;;;;;;
2023/10/03 07:37:20;;;;;;;7.28;2.42;;;;;;;;;;6280771;22;20089;-86
2023/10/03 07:43:16;;;;;;;9.65;2.65;;;;;;;;;;6231545;22;20027;-90
2023/10/03 07:46:08;;;;;;;11.75;2.50;;;;;;;;;;6253961;22;20435;-90
2023/10/03 07:49:02;;;;;;;6.82;2.17;;;;;;;;;;6255930;22;20019;-91
2023/10/03 07:51:34;;;;;;;8.40;2.35;;;;;;;;;;6254307;22;20023;-90
2023/10/03 07:56:56;;;;;;;7.18;2.10;;;;;;;;;;6267994;22;20016;-88
2023/10/03 07:59:25;;;;;;;5.50;1.60;;;;;;;;;;6255318;22;20038;-90
2023/10/03 08:01:52;;;;;;;5.38;2.10;;;;;;;;;;6255578;22;20007;-92
2023/10/03 08:04:25;;;;;;;6.43;1.73;;;;;;;;;;6256522;22;20022;-89
2023/10/03 08:06:55;;;;;;;9.52;2.20;;;;;;;;;;6253328;22;20102;-89
2023/10/03 08:09:35;;;;;;;7.45;1.90;;;;;;;;;;6254481;22;20011;-89
2023/10/03 08:12:11;;;;;;;9.85;2.00;;;;;;;;;;6253216;22;20026;-89
2023/10/03 08:14:51;;;;;;;10.43;2.55;;;;;;;;;;6256027;22;20015;-88
2023/10/03 08:17:42;;;;;;;;;;;;;;;;;;;;;
2023/10/03 08:20:36;;;;;;;4.60;1.67;;;;;;;;;;6280803;22;19969;-89
2023/10/03 08:23:03;;;;;;;4.45;1.90;;;;;;;;;;6255073;22;20076;-89
2023/10/03 08:25:31;;;;;;;6.60;1.77;;;;;;;;;;6254888;22;20090;-88
2023/10/03 08:28:10;;;;;;;8.45;2.28;;;;;;;;;;6255676;22;20042;-89
2023/10/03 08:30:47;;;;;;;8.98;1.90;;;;;;;;;;6255448;22;20015;-90
2023/10/03 08:33:25;;;;;;;8.20;1.80;;;;;;;;;;6253376;22;20067;-89
2023/10/03 08:35:53;;;;;;;6.47;1.75;;;;;;;;;;6255571;22;20015;-89
2023/10/03 08:38:20;;;;;;;6.60;2.50;;;;;;;;;;6255560;22;20458;-88
2023/10/03 08:40:50;;;;;;;5.50;1.98;;;;;;;;;;6255829;22;20046;-89
2023/10/03 08:43:44;;;;;;;4.43;1.60;;;;;;;;;;6255821;22;20094;-92
2023/10/03 08:46:16;;;;;;;4.75;1.40;;;;;;;;;;6249357;22;20030;-88
2023/10/03 08:55:34;;;;;;;2.80;1.08;;;;;;;;;;6188850;23;20044;-89
2023/10/03 08:58:30;;;;;;;3.75;1.50;;;;;;;;;;6254133;22;20088;-88
2023/10/03 09:01:19;;;;;;;5.32;2.05;;;;;;;;;;6205707;22;20022;-89
2023/10/03 09:04:11;;;;;;;5.05;1.70;;;;;;;;;;6259238;22;20073;-89
2023/10/03 09:07:00;;;;;;;4.32;1.67;;;;;;;;;;6256127;22;20017;-88
2023/10/03 09:09:41;;;;;;;3.03;1.60;;;;;;;;;;6255788;22;20011;-89
2023/10/03 09:12:42;;;;;;;3.13;1.40;;;;;;;;;;6254386;22;20052;-88
2023/10/03 09:19:23;;;;;;;2.58;1.33;;;;;;;;;;6213523;23;20357;-89
2023/10/03 09:22:07;;;;;;;3.45;1.20;;;;;;;;;;6180794;22;20466;-91
2023/10/03 09:25:21;;;;;;;3.45;0.98;;;;;;;;;;6255401;22;20019;-88
2023/10/03 09:27:41;;;;;;;;;;;;;;;;;;6279292;22;20019;-89
2023/10/03 09:30:22;;;;;;;3.67;1.52;;;;;;;;;;6255843;22;20228;-89
2023/10/03 09:32:58;;;;;;;6.57;1.95;;;;;;;;;;6255623;22;20026;-88
2023/10/03 09:35:31;;;;;;;7.55;2.10;;;;;;;;;;6255548;22;20090;-87
2023/10/03 09:37:58;;;;;;;5.25;2.30;;;;;;;;;;6254065;22;20019;-87
2023/10/03 09:40:25;;;;;;;7.13;2.47;;;;;;;;;;6255019;22;20026;-88
2023/10/03 09:42:59;;;;;;;5.45;2.25;;;;;;;;;;6254082;22;20092;-87
2023/10/03 09:45:25;;;;;;;4.80;2.00;;;;;;;;;;6254126;22;20094;-86
2023/10/03 09:47:58;;;;;;;5.75;2.20;;;;;;;;;;6278346;22;20031;-89
2023/10/03 09:50:27;;;;;;;7.85;2.33;;;;;;;;;;6252788;22;20030;-85
2023/10/03 09:52:54;;;;;;;6.00;2.38;;;;;;;;;;6251752;22;20059;-85
2023/10/03 09:55:26;;;;;;;7.20;1.88;;;;;;;;;;6251789;22;20026;-89
2023/10/03 09:57:54;;;;;;;2.42;1.50;;;;;;;;;;6251792;22;20075;-88
2023/10/03 10:00:38;;;;;;;4.47;1.85;;;;;;;;;;6252831;22;20065;-85
2023/10/03 10:03:33;;;;;;;5.10;1.60;;;;;;;;;;6255040;22;20064;-85
2023/10/03 10:05:59;;;;;;;4.53;1.75;;;;;;;;;;6281907;22;20027;-85
2023/10/03 10:08:27;;;;;;;4.75;1.98;;;;;;;;;;6256526;22;20432;-87
2023/10/03 10:11:10;;;;;;;4.38;2.20;;;;;;;;;;6254085;22;20019;-85
2023/10/03 10:13:45;;;;;;;4.00;2.08;;;;;;;;;;6254108;22;20101;-86
2023/10/03 10:18:43;;;;;;;8.07;2.47;;;;;;;;;;6279627;22;20324;-87
2023/10/03 10:21:31;;;;;;;8.02;2.15;;;;;;;;;;6280270;22;20020;-87
2023/10/03 10:24:15;;;;;;;6.22;2.40;;;;;;;;;;6254751;22;20015;-87
2023/10/03 10:26:59;;;;;;;7.68;2.53;;;;;;;;;;6256201;22;20030;-87
2023/10/03 10:29:25;;;;;;;7.05;2.70;;;;;;;;;;6255075;22;20076;-86
2023/10/03 10:31:58;;;;;;;5.68;2.28;;;;;;;;;;6254938;22;20018;-87
2023/10/03 10:34:29;;;;;;;6.82;3.05;;;;;;;;;;6254261;22;20016;-87
2023/10/03 10:37:15;;;;;;;5.95;2.50;;;;;;;;;;6254489;22;20011;-86
2023/10/03 10:39:56;;;;;;;11.27;3.60;;;;;;;;;;6255011;22;20015;-84
2023/10/03 10:42:29;;;;;;;5.97;2.88;;;;;;;;;;6254339;22;20321;-87
2023/10/03 10:45:09;;;;;;;7.80;3.13;;;;;;;;;;6255036;22;20015;-85
2023/10/03 10:47:43;;;;;;;7.05;2.83;;;;;;;;;;6255220;22;20019;-86
2023/10/03 10:50:09;;;;;;;9.57;3.28;;;;;;;;;;6254250;22;20046;-85
2023/10/03 10:52:53;;;;;;;7.70;2.90;;;;;;;;;;6255131;22;20019;-86
2023/10/03 10:55:21;;;;;;;6.68;3.10;;;;;;;;;;6255810;22;20015;-85
2023/10/03 10:57:47;;;;;;;7.22;2.85;;;;;;;;;;6255335;22;20457;-87
2023/10/03 11:00:21;;;;;;;6.85;2.70;;;;;;;;;;6280980;22;20015;-85
2023/10/03 11:02:47;;;;;;;6.85;2.95;;;;;;;;;;6254914;22;20090;-86
2023/10/03 11:05:15;;;;;;;6.78;2.72;;;;;;;;;;6254454;22;20030;-85
2023/10/03 11:07:49;;;;;;;7.57;2.58;;;;;;;;;;6280492;22;20386;-85
2023/10/03 11:10:17;;;;;;;4.78;2.38;;;;;;;;;;6255472;22;20019;-85
2023/10/03 11:12:43;;;;;;;8.50;2.80;;;;;;;;;;6254808;22;20057;-85
2023/10/03 11:15:13;;;;;;;6.55;2.83;;;;;;;;;;6255471;22;20019;-85
2023/10/03 11:17:41;;;;;;;12.85;3.65;;;;;;;;;;6254970;22;20023;-86
2023/10/03 11:20:08;;;;;;;7.03;2.50;;;;;;;;;;6254040;22;20507;-86
2023/10/03 11:22:41;;;;;;;9.65;3.10;;;;;;;;;;6253412;22;20023;-86
2023/10/03 11:25:11;;;;;;;7.65;2.85;;;;;;;;;;6255116;22;20090;-86
2023/10/03 11:27:38;;;;;;;6.57;2.97;;;;;;;;;;6255153;22;20080;-85
2023/10/03 11:30:19;;;;;;;8.05;2.60;;;;;;;;;;6280576;22;20324;-84
2023/10/03 11:32:45;;;;;;;4.93;2.67;;;;;;;;;;6254976;22;20020;-85
2023/10/03 11:35:20;;;;;;;7.90;2.65;;;;;;;;;;6254452;22;20508;-85
2023/10/03 11:37:48;;;;;;;8.68;2.53;;;;;;;;;;6254731;22;20015;-86
2023/10/03 11:40:18;;;;;;;7.43;2.55;;;;;;;;;;6254120;22;20081;-86
2023/10/03 11:42:58;;;;;;;8.80;2.50;;;;;;;;;;6255530;22;20053;-87
2023/10/03 11:45:33;;;;;;;7.78;2.50;;;;;;;;;;6254620;22;20086;-86
2023/10/03 11:48:02;;;;;;;6.35;2.58;;;;;;;;;;6257411;22;20022;-87
2023/10/03 11:50:29;;;;;;;7.15;2.67;;;;;;;;;;6282710;22;20019;-87
2023/10/03 11:52:59;;;;;;;8.13;2.65;;;;;;;;;;6282802;22;20041;-86
2023/10/03 11:55:26;;;;;;;7.07;2.95;;;;;;;;;;6256664;22;20018;-85
2023/10/03 11:57:52;;;;;;;9.13;3.13;;;;;;;;;;6282199;22;20011;-85
2023/10/03 12:00:24;;;;;;;8.40;2.60;;;;;;;;;;6256245;22;20430;-86
2023/10/03 12:02:50;;;;;;;7.88;2.50;;;;;;;;;;6283298;22;20015;-87
2023/10/03 12:05:16;;;;;;;7.65;2.85;;;;;;;;;;6256297;22;20371;-86
2023/10/03 12:07:46;;;;;;;9.93;2.70;;;;;;;;;;6255392;22;20313;-86
2023/10/03 12:10:15;;;;;;;9.35;2.50;;;;;;;;;;6254212;22;20132;-86
2023/10/03 12:12:41;;;;;;;8.43;2.90;;;;;;;;;;6255362;22;20118;-87
2023/10/03 12:15:12;;;;;;;8.80;2.95;;;;;;;;;;6254612;22;20317;-87
2023/10/03 12:17:42;;;;;;;7.95;3.10;;;;;;;;;;6255348;22;20050;-86
2023/10/03 12:20:12;;;;;;;10.30;3.08;;;;;;;;;;6255572;22;20090;-86
2023/10/03 12:22:44;;;;;;;7.43;3.10;;;;;;;;;;6255736;22;20016;-87
2023/10/03 12:25:15;;;;;;;9.95;2.83;;;;;;;;;;6255416;22;20393;-88
2023/10/03 12:27:42;;;;;;;7.68;3.05;;;;;;;;;;6278873;22;20015;-87
2023/10/03 12:30:10;;;;;;;6.45;2.70;;;;;;;;;;6255346;22;20106;-85
2023/10/03 12:32:38;;;;;;;9.32;3.03;;;;;;;;;;6254681;22;20023;-86
2023/10/03 12:35:05;;;;;;;11.30;3.10;;;;;;;;;;6255494;22;20101;-85
2023/10/03 12:37:32;;;;;;;8.32;2.72;;;;;;;;;;6307168;22;20463;-85
2023/10/03 12:40:03;;;;;;;10.38;2.60;;;;;;;;;;6307498;22;20027;-85
2023/10/03 12:42:29;;;;;;;8.15;2.83;;;;;;;;;;6307532;22;20038;-86
2023/10/03 12:45:00;;;;;;;8.77;2.90;;;;;;;;;;6255196;22;20026;-84
2023/10/03 12:47:28;;;;;;;7.60;2.78;;;;;;;;;;6254999;22;20057;-85
2023/10/03 12:49:54;;;;;;;7.75;2.75;;;;;;;;;;6280887;22;20031;-85
2023/10/03 12:52:20;;;;;;;6.68;2.80;;;;;;;;;;6253416;22;20092;-86
2023/10/03 12:54:47;;;;;;;7.13;2.80;;;;;;;;;;6254708;22;20141;-84
2023/10/03 12:57:14;;;;;;;9.55;2.92;;;;;;;;;;6280069;22;20086;-85
2023/10/03 12:59:45;;;;;;;7.20;2.60;;;;;;;;;;6280253;22;20023;-85
2023/10/03 13:02:14;;;;;;;8.98;2.28;;;;;;;;;;6279750;22;20455;-85
2023/10/03 13:04:41;;;;;;;8.75;2.85;;;;;;;;;;6307460;22;20017;-84
2023/10/03 13:07:09;;;;;;;8.30;2.58;;;;;;;;;;6307196;22;20019;-85
2023/10/03 13:09:36;;;;;;;8.43;2.88;;;;;;;;;;6254804;22;20122;-85
2023/10/03 13:12:03;;;;;;;8.35;3.08;;;;;;;;;;6276881;22;20019;-85
2023/10/03 13:14:30;;;;;;;6.93;2.67;;;;;;;;;;6278218;22;20045;-85
2023/10/03 13:17:02;;;;;;;7.72;2.30;;;;;;;;;;6251346;22;20019;-85
2023/10/03 13:19:34;;;;;;;8.98;2.85;;;;;;;;;;6279409;22;20030;-88
2023/10/03 13:22:03;;;;;;;8.98;2.78;;;;;;;;;;6280446;22;20019;-86
2023/10/03 13:24:30;;;;;;;9.60;2.92;;;;;;;;;;6255379;22;20018;-89
2023/10/03 13:26:56;;;;;;;8.80;3.03;;;;;;;;;;6254878;22;20019;-89
2023/10/03 13:29:23;;;;;;;6.30;2.55;;;;;;;;;;6255960;22;20018;-92
2023/10/03 13:31:52;;;;;;;8.48;2.70;;;;;;;;;;6253894;22;20015;-86
2023/10/03 13:34:20;;;;;;;20.60;3.08;;;;;;;;;;6253646;22;20387;-85
2023/10/03 13:36:46;;;;;;;8.57;2.88;;;;;;;;;;6279880;22;20015;-87
2023/10/03 13:39:26;;;;;;;8.38;2.70;;;;;;;;;;6280332;22;20015;-88
2023/10/03 13:42:04;;;;;;;7.50;2.40;;;;;;;;;;6254503;22;20090;-88
2023/10/03 13:44:31;;;;;;;7.32;2.40;;;;;;;;;;6254135;22;20101;-85
2023/10/03 13:46:59;;;;;;;7.20;2.40;;;;;;;;;;6252808;22;20026;-85
2023/10/03 13:49:25;;;;;;;9.77;2.67;;;;;;;;;;6254742;22;20026;-84
2023/10/03 13:51:52;;;;;;;8.15;2.63;;;;;;;;;;6254780;22;20053;-86
2023/10/03 13:57:37;;;;;;;8.02;3.00;;;;;;;;;;6183695;23;20125;-87
2023/10/03 14:00:06;;;;;;;10.57;3.80;;;;;;;;;;6244927;22;20021;-88
2023/10/03 14:03:00;;;;;;;;;;;;;;;;;;;;;
2023/10/03 14:05:26;;;;;;;9.38;3.10;;;;;;;;;;6282383;22;20094;-87
2023/10/03 14:07:52;;;;;;;7.00;2.92;;;;;;;;;;6256166;22;20027;-88
2023/10/03 14:10:22;;;;;;;10.50;3.33;;;;;;;;;;6254901;22;20011;-87
2023/10/03 14:12:48;;;;;;;10.07;3.30;;;;;;;;;;6254174;22;20015;-87
2023/10/03 14:15:20;;;;;;;11.23;3.47;;;;;;;;;;6254719;22;20157;-87
2023/10/03 14:17:47;;;;;;;11.52;3.35;;;;;;;;;;6254470;22;20015;-91
2023/10/03 14:20:16;;;;;;;10.48;3.28;;;;;;;;;;6279923;22;20030;-89
2023/10/03 14:22:42;;;;;;;12.05;3.05;;;;;;;;;;6254100;22;20016;-89
2023/10/03 14:25:14;;;;;;;8.55;3.22;;;;;;;;;;6254973;22;20100;-88
2023/10/03 14:27:42;;;;;;;9.15;3.40;;;;;;;;;;6254044;22;20011;-87
2023/10/03 14:30:09;;;;;;;10.55;3.33;;;;;;;;;;6253417;22;20023;-88
2023/10/03 14:32:41;;;;;;;9.90;3.10;;;;;;;;;;6253655;22;20057;-88
2023/10/03 14:35:07;;;;;;;10.00;3.30;;;;;;;;;;6253518;22;20027;-88
2023/10/03 14:37:34;;;;;;;7.22;3.22;;;;;;;;;;6253681;22;20019;-87
2023/10/03 14:40:00;;;;;;;11.27;3.97;;;;;;;;;;6279195;22;20011;-87
2023/10/03 14:42:26;;;;;;;10.73;3.40;;;;;;;;;;6253679;22;20015;-88
2023/10/03 14:44:52;;;;;;;11.20;3.13;;;;;;;;;;6306058;22;20027;-88
2023/10/03 14:47:18;;;;;;;10.18;3.15;;;;;;;;;;6278933;22;20050;-88
2023/10/03 14:49:45;;;;;;;10.82;3.47;;;;;;;;;;6278625;22;20109;-88
2023/10/03 14:52:12;;;;;;;11.82;2.90;;;;;;;;;;6253782;22;20022;-87
2023/10/03 14:54:39;;;;;;;7.13;3.20;;;;;;;;;;6307012;22;20082;-87
2023/10/03 14:57:05;;;;;;;9.93;3.20;;;;;;;;;;6253676;22;20027;-87
2023/10/03 14:59:31;;;;;;;10.52;3.45;;;;;;;;;;6253451;22;20026;-88
2023/10/03 15:01:57;;;;;;;10.00;3.40;;;;;;;;;;6254028;22;20466;-87
2023/10/03 15:04:26;;;;;;;9.35;3.45;;;;;;;;;;6254065;22;20344;-89
2023/10/03 15:06:52;;;;;;;10.75;3.38;;;;;;;;;;6278983;22;20312;-87
2023/10/03 15:09:20;;;;;;;7.05;3.00;;;;;;;;;;6254013;22;20048;-87
2023/10/03 15:11:46;;;;;;;12.35;3.53;;;;;;;;;;6253470;22;20019;-87
2023/10/03 15:14:12;;;;;;;9.00;3.25;;;;;;;;;;6254240;22;20015;-88
2023/10/03 15:16:38;;;;;;;9.13;3.28;;;;;;;;;;6253211;22;20021;-87
2023/10/03 15:19:05;;;;;;;7.28;3.13;;;;;;;;;;6254031;22;20050;-88
2023/10/03 15:21:31;;;;;;;8.77;3.00;;;;;;;;;;6254591;22;20015;-88
2023/10/03 15:23:57;;;;;;;7.40;3.30;;;;;;;;;;6259781;22;20064;-88
2023/10/03 15:26:24;;;;;;;10.02;3.53;;;;;;;;;;6261993;22;20015;-88
2023/10/03 15:28:50;;;;;;;12.85;3.78;;;;;;;;;;6263619;22;20062;-87
2023/10/03 15:31:23;;;;;;;9.88;2.92;;;;;;;;;;6259329;22;20022;-88
2023/10/03 15:33:49;;;;;;;13.75;3.83;;;;;;;;;;6257444;22;20011;-88
2023/10/03 15:36:17;;;;;;;6.82;2.83;;;;;;;;;;6281851;22;20342;-89
2023/10/03 15:38:46;;;;;;;8.07;3.05;;;;;;;;;;6256237;22;20058;-88
2023/10/03 15:41:14;;;;;;;9.43;3.20;;;;;;;;;;6255742;22;20438;-88
2023/10/03 15:43:41;;;;;;;10.95;3.63;;;;;;;;;;6257151;22;20022;-88
2023/10/03 15:46:09;;;;;;;7.47;3.33;;;;;;;;;;6257138;22;20049;-88
2023/10/03 15:48:37;;;;;;;9.10;3.58;;;;;;;;;;6258387;22;20023;-89
2023/10/03 15:51:11;;;;;;;9.15;3.35;;;;;;;;;;6258507;22;20065;-89
2023/10/03 15:53:37;;;;;;;7.72;2.75;;;;;;;;;;6256032;22;20011;-89
2023/10/03 15:56:09;;;;;;;7.47;3.03;;;;;;;;;;6257561;22;20471;-87
2023/10/03 15:58:35;;;;;;;10.02;2.90;;;;;;;;;;6257560;22;20021;-87
2023/10/03 16:01:02;;;;;;;8.90;2.80;;;;;;;;;;6257944;22;20411;-87
2023/10/03 16:03:28;;;;;;;10.43;3.05;;;;;;;;;;6257000;22;20026;-87
2023/10/03 16:05:57;;;;;;;12.32;3.10;;;;;;;;;;6256813;22;20348;-89
2023/10/03 16:08:27;;;;;;;9.95;3.15;;;;;;;;;;6255855;22;20019;-88
2023/10/03 16:11:02;;;;;;;13.18;3.78;;;;;;;;;;6256575;22;20019;-86
2023/10/03 16:13:29;;;;;;;14.25;3.95;;;;;;;;;;6255180;22;20041;-86
2023/10/03 16:15:55;;;;;;;8.13;3.78;;;;;;;;;;6281065;22;20466;-89
2023/10/03 16:18:21;;;;;;;12.40;4.10;;;;;;;;;;6255630;22;20389;-89
2023/10/03 16:20:48;;;;;;;10.10;3.75;;;;;;;;;;6255830;22;20018;-89